Time;durP1;ratioP1;P1;durP2;ratioP2;P2;SDS_P1;SDS_P2;PMS_P1;PMS_P2;Temp;Humidity;BMP_temperature;BMP_pressure;BME280_temperature;BME280_humidity;BME280_pressure;Samples;Min_cycle;Max_cycle;Signal;HPM_P1;HPM_P2
2021/09/07 00:00:57;;;;;;;7.60;4.55;;;;;;;11.57;80.96;97359.22;1665523;86;21095;-83
2021/09/07 00:03:22;;;;;;;7.97;3.67;;;;;;;11.58;80.81;97353.52;1701769;83;21076;-83
2021/09/07 00:05:48;;;;;;;7.70;4.10;;;;;;;11.57;80.59;97354.02;1708449;83;21058;-83
2021/09/07 00:08:14;;;;;;;7.03;4.17;;;;;;;11.57;80.57;97349.30;1707545;83;21030;-82
2021/09/07 00:10:40;;;;;;;9.15;4.47;;;;;;;11.57;80.38;97346.69;1690116;83;21089;-82
2021/09/07 00:13:06;;;;;;;6.85;4.20;;;;;;;11.60;80.54;97347.66;1702625;83;21359;-83
2021/09/07 00:15:32;;;;;;;10.65;4.37;;;;;;;11.59;80.33;97346.85;1689916;83;21054;-82
2021/09/07 00:17:57;;;;;;;6.87;3.90;;;;;;;11.59;80.07;97339.53;1634479;85;21053;-83
2021/09/07 00:20:23;;;;;;;7.00;4.25;;;;;;;11.56;78.96;97334.66;1668574;85;21032;-83
2021/09/07 00:22:49;;;;;;;7.78;4.30;;;;;;;11.50;78.27;97332.69;1676279;84;21440;-83
2021/09/07 00:25:15;;;;;;;5.80;4.15;;;;;;;11.43;77.43;97338.56;1687118;84;20983;-82
2021/09/07 00:27:41;;;;;;;5.22;3.83;;;;;;;11.37;77.53;97336.59;1697493;84;21039;-83
2021/09/07 00:30:08;;;;;;;6.67;4.03;;;;;;;11.36;77.32;97332.37;1691032;84;21405;-83
2021/09/07 00:32:33;;;;;;;6.75;4.60;;;;;;;11.34;76.68;97329.61;1687796;84;21810;-83
2021/09/07 00:34:59;;;;;;;7.12;4.20;;;;;;;11.31;77.14;97331.24;1697810;84;21069;-82
2021/09/07 00:37:25;;;;;;;8.30;4.10;;;;;;;11.27;76.46;97328.16;1690519;84;21067;-83
2021/09/07 00:39:51;;;;;;;6.17;3.58;;;;;;;11.22;75.75;97329.60;1696498;83;21423;-83
2021/09/07 00:42:17;;;;;;;4.97;3.35;;;;;;;11.15;75.88;97324.73;1689964;84;21032;-83
2021/09/07 00:44:42;;;;;;;6.75;3.52;;;;;;;11.10;75.37;97323.93;1720722;83;21004;-82
2021/09/07 00:47:08;;;;;;;8.40;3.60;;;;;;;11.07;74.86;97325.07;1670914;84;20985;-83
2021/09/07 00:49:35;;;;;;;8.23;3.37;;;;;;;11.06;74.03;97323.91;1670939;84;21027;-83
2021/09/07 00:52:01;;;;;;;4.62;3.08;;;;;;;11.02;73.93;97326.51;1681421;84;21066;-83
2021/09/07 00:54:29;;;;;;;5.22;3.40;;;;;;;11.00;74.06;97321.96;1684675;84;21012;-83
2021/09/07 00:56:55;;;;;;;4.70;2.27;;;;;;;10.96;73.12;97321.97;1692116;84;22332;-83
2021/09/07 00:59:21;;;;;;;4.58;3.05;;;;;;;10.91;72.21;97321.64;1674584;84;21370;-82
2021/09/07 01:01:48;;;;;;;4.03;2.95;;;;;;;10.87;72.82;97321.61;1694420;83;21031;-83
2021/09/07 01:04:13;;;;;;;5.83;2.77;;;;;;;10.82;71.65;97319.02;1697348;83;21452;-82
2021/09/07 01:06:39;;;;;;;4.08;2.58;;;;;;;10.81;71.71;97313.48;1672083;84;21071;-82
2021/09/07 01:09:06;;;;;;;2.98;2.00;;;;;;;10.80;71.96;97314.95;1666344;85;21166;-83
2021/09/07 01:11:32;;;;;;;4.33;2.47;;;;;;;10.77;70.54;97318.69;1628217;86;21485;-82
2021/09/07 01:13:58;;;;;;;3.42;2.10;;;;;;;10.74;70.29;97318.20;1656579;84;21079;-82
2021/09/07 01:16:23;;;;;;;3.62;2.30;;;;;;;10.69;70.37;97319.95;1663205;84;21041;-83
2021/09/07 01:18:49;;;;;;;4.58;2.70;;;;;;;10.64;69.06;97319.63;1674494;84;21082;-82
2021/09/07 01:21:15;;;;;;;6.22;2.92;;;;;;;10.59;70.38;97318.00;1715040;83;21038;-83
2021/09/07 01:23:44;;;;;;;4.25;2.80;;;;;;;10.56;69.72;97316.19;1658168;84;21079;-82
2021/09/07 01:26:12;;;;;;;4.50;2.77;;;;;;;10.51;69.39;97308.88;1679729;84;21052;-83
2021/09/07 01:28:38;;;;;;;5.12;3.20;;;;;;;10.49;69.64;97305.63;1652237;84;21016;-82
2021/09/07 01:31:05;;;;;;;5.05;3.27;;;;;;;10.52;69.49;97302.70;1661842;84;21455;-82
2021/09/07 01:33:30;;;;;;;5.55;2.80;;;;;;;10.52;69.09;97307.41;1680084;84;21480;-82
2021/09/07 01:35:57;;;;;;;4.65;3.22;;;;;;;10.53;69.13;97304.33;1673220;84;21013;-82
2021/09/07 01:38:25;;;;;;;4.90;3.33;;;;;;;10.53;69.46;97308.22;1663163;85;21011;-82
2021/09/07 01:40:52;;;;;;;4.45;3.20;;;;;;;10.53;69.76;97308.22;1684697;84;21425;-82
2021/09/07 01:43:18;;;;;;;7.00;3.20;;;;;;;10.51;70.01;97301.89;1694497;84;21091;-82
2021/09/07 01:45:47;;;;;;;5.33;3.60;;;;;;;10.52;71.03;97302.21;1679226;84;21115;-82
2021/09/07 01:48:18;;;;;;;4.55;3.20;;;;;;;10.55;70.52;97302.87;1681384;84;21031;-83
2021/09/07 01:50:44;;;;;;;6.35;3.85;;;;;;;10.60;71.42;97298.02;1674725;84;21456;-83
2021/09/07 01:53:10;;;;;;;8.80;3.72;;;;;;;10.64;71.72;97301.92;1683205;84;20980;-82
2021/09/07 01:55:37;;;;;;;9.70;3.85;;;;;;;10.69;71.66;97303.06;1704161;84;21090;-82
2021/09/07 01:58:03;;;;;;;6.78;4.05;;;;;;;10.75;71.53;97302.44;1691095;84;21056;-82
2021/09/07 02:00:29;;;;;;;6.30;3.77;;;;;;;10.77;71.51;97304.39;1679124;84;21019;-83
2021/09/07 02:02:55;;;;;;;8.15;4.37;;;;;;;10.80;71.86;97297.56;1667693;84;21038;-83
2021/09/07 02:05:20;;;;;;;7.80;4.70;;;;;;;10.83;71.64;97306.83;1690884;84;21512;-83
2021/09/07 02:07:46;;;;;;;8.10;3.72;;;;;;;10.85;71.77;97302.28;1702547;84;21015;-83
2021/09/07 02:10:12;;;;;;;4.80;3.72;;;;;;;10.87;72.46;97306.83;1678440;84;21007;-82
2021/09/07 02:12:39;;;;;;;6.47;4.12;;;;;;;10.91;72.89;97304.73;1664759;85;21007;-83
2021/09/07 02:15:06;;;;;;;5.92;4.05;;;;;;;10.95;72.92;97303.44;1673790;84;21097;-83
2021/09/07 02:17:32;;;;;;;5.90;4.42;;;;;;;10.99;72.33;97307.33;1693482;84;21063;-82
2021/09/07 02:19:58;;;;;;;5.80;3.58;;;;;;;11.01;72.54;97306.19;1678960;84;21167;-83
2021/09/07 02:22:23;;;;;;;6.65;4.12;;;;;;;11.01;72.14;97306.19;1693318;84;20992;-82
2021/09/07 02:24:50;;;;;;;6.47;4.17;;;;;;;11.03;72.81;97308.14;1697022;84;21046;-82
2021/09/07 02:27:15;;;;;;;7.92;4.62;;;;;;;11.02;73.61;97305.22;1693973;84;21457;-83
2021/09/07 02:29:41;;;;;;;5.03;3.95;;;;;;;11.04;73.76;97307.16;1682537;84;20992;-82
2021/09/07 02:32:07;;;;;;;6.65;4.35;;;;;;;11.06;73.85;97307.84;1681947;84;21039;-83
2021/09/07 02:34:34;;;;;;;6.58;4.35;;;;;;;11.09;74.20;97305.40;1696163;84;21162;-82
2021/09/07 02:36:59;;;;;;;6.72;4.75;;;;;;;11.12;74.55;97304.58;1682175;84;21108;-83
2021/09/07 02:39:25;;;;;;;5.83;4.08;;;;;;;11.14;74.10;97304.41;1682042;84;21443;-82
2021/09/07 02:41:51;;;;;;;6.25;4.42;;;;;;;11.15;74.49;97302.14;1678996;84;21020;-83
2021/09/07 02:44:18;;;;;;;7.17;4.72;;;;;;;11.15;74.65;97298.23;1695612;84;21169;-82
2021/09/07 02:46:44;;;;;;;5.92;4.45;;;;;;;11.16;74.89;97300.34;1680691;84;21446;-82
2021/09/07 02:49:11;;;;;;;5.67;4.50;;;;;;;11.17;75.26;97298.88;1690955;84;21378;-82
2021/09/07 02:51:37;;;;;;;6.65;4.75;;;;;;;11.20;75.33;97299.85;1696500;84;21016;-82
2021/09/07 02:54:03;;;;;;;6.83;4.85;;;;;;;11.24;75.30;97297.27;1678830;84;21015;-82
2021/09/07 02:56:29;;;;;;;6.78;5.00;;;;;;;11.27;75.67;97294.83;1684414;84;21045;-82
2021/09/07 02:58:54;;;;;;;6.60;4.85;;;;;;;11.29;75.80;97293.68;1696684;84;21006;-82
2021/09/07 03:01:20;;;;;;;7.80;4.72;;;;;;;11.30;76.10;97293.20;1697852;84;21436;-82
2021/09/07 03:03:46;;;;;;;8.18;4.85;;;;;;;11.32;76.44;97292.05;1692147;84;21020;-82
2021/09/07 03:06:12;;;;;;;7.40;4.40;;;;;;;11.37;76.66;97294.15;1699439;84;21028;-83
2021/09/07 03:08:38;;;;;;;5.92;3.98;;;;;;;11.41;76.17;97293.68;1649909;85;21047;-82
2021/09/07 03:11:03;;;;;;;6.10;4.05;;;;;;;11.44;76.12;97292.53;1693465;84;21527;-82
2021/09/07 03:13:29;;;;;;;6.50;4.35;;;;;;;11.47;76.13;97296.10;1685738;84;21015;-83
2021/09/07 03:15:55;;;;;;;7.33;4.17;;;;;;;11.50;75.74;97293.66;1676505;84;21049;-82
2021/09/07 03:18:21;;;;;;;5.50;3.95;;;;;;;11.50;75.70;97286.66;1678926;84;21061;-82
2021/09/07 03:20:47;;;;;;;6.17;4.17;;;;;;;11.52;75.86;97286.00;1668864;84;20987;-82
2021/09/07 03:23:13;;;;;;;7.55;4.25;;;;;;;11.56;75.92;97283.41;1694919;84;21126;-82
2021/09/07 03:25:39;;;;;;;4.72;3.20;;;;;;;11.62;75.95;97284.53;1679045;84;21458;-82
2021/09/07 03:28:05;;;;;;;5.45;3.65;;;;;;;11.67;76.23;97282.23;1678922;84;21077;-82
2021/09/07 03:30:30;;;;;;;3.98;3.50;;;;;;;11.71;76.62;97283.52;1680419;84;21102;-82
2021/09/07 03:32:56;;;;;;;4.58;3.92;;;;;;;11.73;76.59;97284.19;1695372;84;21550;-83
2021/09/07 03:35:22;;;;;;;5.87;3.98;;;;;;;11.77;76.31;97285.97;1679187;84;21665;-82
2021/09/07 03:37:48;;;;;;;5.45;3.65;;;;;;;11.79;76.42;97284.03;1666620;84;21043;-82
2021/09/07 03:40:14;;;;;;;7.95;4.03;;;;;;;11.83;76.52;97289.22;1685563;84;21003;-82
2021/09/07 03:42:40;;;;;;;6.12;4.47;;;;;;;11.87;76.34;97279.59;1692796;84;21012;-83
2021/09/07 03:45:08;;;;;;;5.58;4.15;;;;;;;11.92;76.22;97280.42;1675389;85;21421;-82
2021/09/07 03:47:34;;;;;;;5.35;4.08;;;;;;;11.94;76.34;97283.17;1700692;84;21385;-82
2021/09/07 03:50:01;;;;;;;5.20;3.83;;;;;;;11.96;76.48;97283.00;1672572;84;21003;-83
2021/09/07 03:52:27;;;;;;;6.10;4.22;;;;;;;11.97;76.45;97282.02;1681199;84;21050;-82
2021/09/07 03:54:52;;;;;;;4.97;3.37;;;;;;;11.97;76.03;97284.13;1672994;83;21039;-83
2021/09/07 03:57:18;;;;;;;5.33;3.20;;;;;;;11.99;76.02;97280.05;1694842;83;21058;-82
2021/09/07 03:59:44;;;;;;;5.60;3.42;;;;;;;12.02;75.72;97271.90;1690269;84;20988;-82
2021/09/07 04:02:10;;;;;;;4.37;3.12;;;;;;;12.05;75.69;97274.19;1673569;84;21053;-82
2021/09/07 04:04:36;;;;;;;4.90;3.17;;;;;;;12.08;75.85;97269.12;1663029;85;20992;-82
2021/09/07 04:07:02;;;;;;;4.47;3.58;;;;;;;12.08;75.56;97273.84;1661533;85;21501;-83
2021/09/07 04:09:28;;;;;;;5.20;3.52;;;;;;;12.11;75.65;97276.11;1681477;85;21094;-82
2021/09/07 04:11:54;;;;;;;5.20;3.20;;;;;;;12.13;75.69;97272.03;1682122;84;21073;-83
2021/09/07 04:14:20;;;;;;;4.50;3.25;;;;;;;12.14;75.61;97262.73;1664358;84;21043;-83
2021/09/07 04:16:46;;;;;;;5.83;3.92;;;;;;;12.20;75.51;97270.36;1682424;84;21120;-83
2021/09/07 04:19:12;;;;;;;4.60;3.75;;;;;;;12.25;75.38;97268.88;1691900;84;21074;-83
2021/09/07 04:21:37;;;;;;;5.37;3.02;;;;;;;12.32;75.55;97269.00;1677230;84;21450;-82
2021/09/07 04:24:04;;;;;;;4.85;3.47;;;;;;;12.37;75.76;97269.32;1703484;83;21035;-82
2021/09/07 04:26:31;;;;;;;4.85;3.67;;;;;;;12.40;75.63;97270.28;1672094;84;21429;-83
2021/09/07 04:28:57;;;;;;;5.90;3.65;;;;;;;12.42;75.87;97261.80;1675656;85;21052;-82
2021/09/07 04:31:24;;;;;;;5.78;3.62;;;;;;;12.46;76.24;97265.67;1678954;84;22443;-83
2021/09/07 04:33:49;;;;;;;5.58;3.50;;;;;;;12.51;76.29;97259.94;1680190;84;21036;-82
2021/09/07 04:36:16;;;;;;;5.45;3.83;;;;;;;12.56;76.19;97262.36;1680018;84;21066;-82
2021/09/07 04:38:41;;;;;;;5.30;3.80;;;;;;;12.62;76.34;97266.88;1686762;83;21474;-82
2021/09/07 04:41:07;;;;;;;5.45;3.00;;;;;;;12.67;76.42;97270.27;1696115;83;21038;-82
2021/09/07 04:43:33;;;;;;;5.78;3.35;;;;;;;12.71;76.52;97268.95;1702294;83;21116;-83
2021/09/07 04:45:59;;;;;;;5.47;3.90;;;;;;;12.75;76.22;97274.63;1683992;84;21491;-82
2021/09/07 04:48:24;;;;;;;3.95;3.40;;;;;;;12.80;76.26;97267.89;1680195;84;21066;-82
2021/09/07 04:50:50;;;;;;;5.62;4.08;;;;;;;12.87;76.15;97277.97;1704274;83;21103;-82
2021/09/07 04:53:16;;;;;;;5.85;4.10;;;;;;;12.94;76.12;97276.77;1700719;83;21003;-82
2021/09/07 04:55:42;;;;;;;5.50;4.53;;;;;;;13.03;76.36;97276.23;1712259;83;21413;-82
2021/09/07 04:58:08;;;;;;;5.83;4.28;;;;;;;13.09;76.43;97280.23;1695586;83;21103;-82
2021/09/07 05:00:34;;;;;;;6.67;4.35;;;;;;;13.14;76.52;97284.92;1676512;85;21151;-82
2021/09/07 05:02:59;;;;;;;5.20;4.20;;;;;;;13.14;76.38;97276.59;1694097;84;21458;-83
2021/09/07 05:05:25;;;;;;;7.30;4.80;;;;;;;13.18;76.46;97282.34;1683179;84;21092;-83
2021/09/07 05:07:51;;;;;;;5.15;4.55;;;;;;;13.23;76.36;97278.70;1685989;84;20989;-83
2021/09/07 05:10:17;;;;;;;6.45;4.55;;;;;;;13.29;76.39;97283.69;1678064;84;20996;-83
2021/09/07 05:12:43;;;;;;;4.50;3.90;;;;;;;13.33;76.20;97280.55;1675522;84;21012;-82
2021/09/07 05:15:10;;;;;;;7.37;5.92;;;;;;;13.36;76.24;97277.61;1668584;84;21106;-83
2021/09/07 05:17:36;;;;;;;8.23;5.55;;;;;;;13.39;76.20;97275.13;1687281;84;21059;-82
2021/09/07 05:20:02;;;;;;;6.58;5.45;;;;;;;13.42;75.83;97283.91;1679633;84;21020;-83
2021/09/07 05:22:27;;;;;;;6.22;4.72;;;;;;;13.47;76.04;97280.27;1657990;84;21165;-82
2021/09/07 05:24:53;;;;;;;6.15;4.28;;;;;;;13.49;76.12;97280.89;1673743;84;21089;-83
2021/09/07 05:27:19;;;;;;;7.25;4.12;;;;;;;13.53;76.18;97277.45;1677065;84;21138;-83
2021/09/07 05:29:46;;;;;;;6.90;4.50;;;;;;;13.57;76.25;97275.60;1689516;84;21091;-82
2021/09/07 05:32:12;;;;;;;5.97;5.17;;;;;;;13.62;76.36;97278.48;1684026;84;21062;-83
2021/09/07 05:34:38;;;;;;;6.30;4.65;;;;;;;13.66;76.49;97277.12;1678238;84;21549;-83
2021/09/07 05:37:04;;;;;;;6.08;4.60;;;;;;;13.69;76.59;97280.71;1661087;84;21342;-82
2021/09/07 05:39:30;;;;;;;6.62;5.05;;;;;;;13.72;76.68;97288.19;1658170;85;21402;-83
2021/09/07 05:41:56;;;;;;;6.83;4.55;;;;;;;13.75;76.84;97287.82;1676036;84;21098;-83
2021/09/07 05:44:22;;;;;;;7.10;4.78;;;;;;;13.80;76.88;97291.19;1677585;84;21430;-83
2021/09/07 05:46:48;;;;;;;6.25;5.03;;;;;;;13.87;76.77;97293.91;1693763;84;21068;-83
2021/09/07 05:49:14;;;;;;;6.20;4.97;;;;;;;13.94;76.88;97296.11;1705257;83;21032;-83
2021/09/07 05:51:41;;;;;;;8.15;5.22;;;;;;;14.00;76.93;97290.18;1682274;85;21501;-82
2021/09/07 05:54:08;;;;;;;7.67;4.85;;;;;;;14.05;76.94;97292.55;1683389;84;21381;-83
2021/09/07 05:56:34;;;;;;;6.72;4.75;;;;;;;14.10;77.12;97285.47;1695687;84;21145;-83
2021/09/07 05:59:00;;;;;;;7.17;5.17;;;;;;;14.17;76.91;97292.91;1700291;84;21094;-83
2021/09/07 06:01:25;;;;;;;8.00;4.62;;;;;;;14.25;77.07;97287.58;1692696;84;21142;-83
2021/09/07 06:03:51;;;;;;;7.05;5.12;;;;;;;14.34;77.01;97290.91;1681049;84;22216;-83
2021/09/07 06:06:17;;;;;;;6.70;5.28;;;;;;;14.42;76.82;97292.91;1664122;84;21083;-83
2021/09/07 06:08:43;;;;;;;8.48;5.50;;;;;;;14.49;76.78;97289.61;1673335;85;21470;-83
2021/09/07 06:11:09;;;;;;;6.33;5.35;;;;;;;14.55;76.91;97291.48;1684552;84;21092;-83
2021/09/07 06:13:36;;;;;;;7.25;5.60;;;;;;;14.60;75.58;97293.03;1681252;84;21040;-83
2021/09/07 06:16:02;;;;;;;6.92;5.20;;;;;;;14.71;76.42;97293.37;1677110;84;21442;-83
2021/09/07 06:18:28;;;;;;;8.28;5.08;;;;;;;14.82;76.70;97290.77;1678203;84;21023;-83
2021/09/07 06:20:54;;;;;;;6.65;5.65;;;;;;;14.91;76.40;97290.95;1688394;84;20987;-82
2021/09/07 06:23:21;;;;;;;7.25;5.47;;;;;;;14.98;76.62;97293.14;1694511;84;21401;-83
2021/09/07 06:25:46;;;;;;;7.53;5.70;;;;;;;15.04;76.40;97289.46;1701035;84;21008;-83
2021/09/07 06:28:12;;;;;;;7.92;5.45;;;;;;;15.11;74.97;97290.31;1662550;84;20992;-83
2021/09/07 06:30:38;;;;;;;7.83;5.35;;;;;;;15.21;74.39;97293.44;1665856;85;21044;-83
2021/09/07 06:33:04;;;;;;;8.05;5.70;;;;;;;15.31;75.88;97290.01;1678901;84;21051;-83
2021/09/07 06:35:30;;;;;;;6.90;5.62;;;;;;;15.38;75.40;97293.48;1699767;84;21015;-84
2021/09/07 06:37:56;;;;;;;8.03;5.28;;;;;;;15.45;75.94;97294.33;1693786;84;21081;-83
2021/09/07 06:40:22;;;;;;;7.20;5.70;;;;;;;15.52;75.64;97292.58;1678373;84;21082;-83
2021/09/07 06:42:49;;;;;;;7.08;5.58;;;;;;;15.59;75.65;97290.84;1647747;85;20981;-83
2021/09/07 06:45:15;;;;;;;7.17;5.90;;;;;;;15.64;75.33;97297.34;1667720;84;22491;-83
2021/09/07 06:47:41;;;;;;;5.28;4.75;;;;;;;15.69;75.28;97293.63;1681986;84;21046;-83
2021/09/07 06:50:07;;;;;;;7.28;5.87;;;;;;;15.72;73.86;97299.30;1684450;83;21013;-83
2021/09/07 06:52:33;;;;;;;8.03;5.95;;;;;;;15.80;74.05;97294.42;1656946;85;21123;-83
2021/09/07 06:54:59;;;;;;;7.15;5.42;;;;;;;15.90;74.43;97297.48;1692030;84;21127;-83
2021/09/07 06:57:26;;;;;;;6.08;5.47;;;;;;;16.01;73.41;97299.58;1664560;85;21190;-83
2021/09/07 06:59:54;;;;;;;8.30;5.78;;;;;;;16.11;73.66;97301.36;1656631;84;20981;-83
2021/09/07 07:02:21;;;;;;;7.45;5.47;;;;;;;16.17;74.49;97303.20;1676334;84;21464;-83
2021/09/07 07:04:46;;;;;;;6.87;5.30;;;;;;;16.19;74.44;97297.25;1679227;84;20989;-83
2021/09/07 07:07:12;;;;;;;8.23;5.47;;;;;;;16.21;73.46;97297.86;1703589;83;21051;-83
2021/09/07 07:09:40;;;;;;;8.83;5.67;;;;;;;16.26;74.56;97304.33;1680071;84;21053;-83
2021/09/07 07:12:07;;;;;;;6.72;5.55;;;;;;;16.28;73.28;97304.47;1676498;84;21043;-83
2021/09/07 07:14:33;;;;;;;6.62;5.83;;;;;;;16.36;74.13;97312.16;1628719;85;21354;-83
2021/09/07 07:16:59;;;;;;;6.55;5.80;;;;;;;16.40;73.67;97312.06;1677408;85;21022;-83
2021/09/07 07:19:25;;;;;;;6.95;5.37;;;;;;;16.47;74.15;97312.11;1666454;84;21046;-83
2021/09/07 07:21:50;;;;;;;7.17;6.00;;;;;;;16.49;74.31;97315.34;1682532;84;20988;-83
2021/09/07 07:24:16;;;;;;;6.00;5.40;;;;;;;16.51;74.79;97312.82;1673362;84;21130;-83
2021/09/07 07:26:44;;;;;;;6.90;6.20;;;;;;;16.55;73.77;97314.55;1693974;83;21435;-83
2021/09/07 07:29:10;;;;;;;7.03;5.65;;;;;;;16.59;73.48;97317.08;1695946;84;20995;-83
2021/09/07 07:31:35;;;;;;;6.55;5.55;;;;;;;16.63;73.23;97314.38;1705483;83;21420;-83
2021/09/07 07:34:02;;;;;;;7.58;5.33;;;;;;;16.69;74.12;97308.88;1714414;83;21031;-83
2021/09/07 07:36:27;;;;;;;8.80;5.55;;;;;;;16.70;72.87;97307.36;1719375;83;21401;-83
2021/09/07 07:38:53;;;;;;;8.33;5.45;;;;;;;16.76;72.65;97316.28;1701928;83;21126;-83
2021/09/07 07:41:19;;;;;;;7.35;5.80;;;;;;;16.85;73.20;97318.20;1675130;84;21119;-83
2021/09/07 07:43:46;;;;;;;8.33;6.17;;;;;;;16.94;70.23;97321.77;1693657;84;21034;-83
2021/09/07 07:46:15;;;;;;;8.18;5.87;;;;;;;17.07;71.85;97322.28;1671003;84;21116;-83
2021/09/07 07:48:41;;;;;;;6.65;5.95;;;;;;;17.17;72.26;97330.59;1659955;85;21009;-83
2021/09/07 07:51:09;;;;;;;7.33;6.17;;;;;;;17.23;72.29;97330.28;1668864;84;21025;-83
2021/09/07 07:53:36;;;;;;;8.75;6.55;;;;;;;17.23;71.58;97332.91;1684916;84;21055;-83
2021/09/07 07:56:02;;;;;;;7.22;5.85;;;;;;;17.24;71.86;97327.45;1691581;83;20983;-83
2021/09/07 07:58:28;;;;;;;8.83;5.83;;;;;;;17.28;71.46;97333.95;1712065;83;21061;-83
2021/09/07 08:00:54;;;;;;;7.30;5.97;;;;;;;17.33;72.45;97334.65;1690223;83;21117;-83
2021/09/07 08:03:20;;;;;;;6.53;5.33;;;;;;;17.37;71.04;97335.34;1693014;82;21033;-83
2021/09/07 08:05:46;;;;;;;7.05;5.92;;;;;;;17.43;71.41;97341.64;1710915;83;21082;-83
2021/09/07 08:08:12;;;;;;;7.72;5.75;;;;;;;17.47;71.47;97341.53;1700756;83;21011;-83
2021/09/07 08:10:39;;;;;;;9.13;5.60;;;;;;;17.51;70.90;97347.19;1677020;84;21038;-83
2021/09/07 08:13:06;;;;;;;7.92;5.78;;;;;;;17.55;72.34;97343.14;1683254;83;21422;-83
2021/09/07 08:15:31;;;;;;;7.58;5.58;;;;;;;17.55;72.62;97346.57;1694065;84;21082;-83
2021/09/07 08:17:57;;;;;;;7.58;5.72;;;;;;;17.56;72.02;97343.44;1709836;83;21448;-83
2021/09/07 08:20:23;;;;;;;6.75;5.78;;;;;;;17.58;69.37;97350.64;1700848;83;20994;-83
2021/09/07 08:22:49;;;;;;;8.58;5.92;;;;;;;17.65;70.67;97348.80;1719745;83;21109;-83
2021/09/07 08:25:14;;;;;;;6.92;6.03;;;;;;;17.66;70.64;97345.97;1660465;84;21059;-83
2021/09/07 08:27:40;;;;;;;8.35;5.80;;;;;;;17.68;71.31;97345.80;1669032;84;21434;-83
2021/09/07 08:30:08;;;;;;;8.25;6.37;;;;;;;17.73;71.28;97353.06;1693240;84;21017;-83
2021/09/07 08:32:40;;;;;;;7.70;5.83;;;;;;;17.76;72.07;97350.87;1670991;84;21061;-83
2021/09/07 08:35:09;;;;;;;7.30;5.72;;;;;;;17.78;72.19;97355.41;1665972;85;21458;-83
2021/09/07 08:37:36;;;;;;;8.30;5.70;;;;;;;17.81;71.63;97358.13;1657471;85;21036;-83
2021/09/07 08:40:04;;;;;;;6.40;5.67;;;;;;;17.87;71.37;97359.94;1686197;84;21010;-83
2021/09/07 08:42:30;;;;;;;7.20;5.65;;;;;;;17.93;71.46;97367.84;1671803;84;21047;-83
2021/09/07 08:44:56;;;;;;;7.47;5.85;;;;;;;17.95;72.02;97364.49;1661308;85;21073;-83
2021/09/07 08:47:21;;;;;;;6.65;5.95;;;;;;;17.99;71.71;97364.89;1670068;84;21405;-83
2021/09/07 08:49:50;;;;;;;7.08;6.12;;;;;;;18.03;72.27;97362.66;1669539;84;21043;-83
2021/09/07 08:52:18;;;;;;;7.53;5.83;;;;;;;18.00;70.52;97369.13;1663800;84;20993;-83
2021/09/07 08:54:46;;;;;;;7.17;5.87;;;;;;;18.04;70.54;97371.64;1680975;84;21127;-83
2021/09/07 08:57:11;;;;;;;7.37;5.58;;;;;;;18.00;70.01;97375.70;1692848;84;21044;-83
2021/09/07 08:59:37;;;;;;;7.40;5.22;;;;;;;17.98;69.93;97367.22;1691426;84;21622;-83
2021/09/07 09:02:17;;;;;;;7.05;5.80;;;;;;;17.94;69.79;97373.91;1685791;84;22412;-83
2021/09/07 09:04:45;;;;;;;7.30;6.28;;;;;;;17.94;70.57;97372.59;1683022;84;21081;-83
2021/09/07 09:07:28;;;;;;;7.15;5.80;;;;;;;17.88;70.83;97376.02;1676581;84;21088;-83
2021/09/07 09:09:57;;;;;;;6.47;5.78;;;;;;;17.82;71.26;97376.33;1676840;84;21049;-83
2021/09/07 09:12:35;;;;;;;6.87;5.45;;;;;;;17.82;71.09;97371.58;1702916;83;21066;-83
2021/09/07 09:15:11;;;;;;;6.17;5.58;;;;;;;17.76;71.06;97372.40;1691719;83;21019;-83
2021/09/07 09:17:37;;;;;;;8.23;6.28;;;;;;;17.71;71.17;97371.67;1638126;86;21408;-83
2021/09/07 09:20:17;;;;;;;7.83;5.60;;;;;;;17.64;71.14;97371.66;1676679;84;21061;-83
2021/09/07 09:22:50;;;;;;;7.35;5.92;;;;;;;17.65;71.45;97375.09;1683896;85;21050;-83
2021/09/07 09:25:35;;;;;;;6.67;5.67;;;;;;;17.69;71.81;97375.02;1680431;84;21059;-83
2021/09/07 09:28:17;;;;;;;7.78;5.92;;;;;;;17.82;72.01;97379.47;1680949;84;21583;-83
2021/09/07 09:30:55;;;;;;;7.30;6.05;;;;;;;17.97;70.96;97378.24;1687114;84;21022;-83
2021/09/07 09:33:26;;;;;;;7.53;6.08;;;;;;;18.19;67.53;97375.37;1685735;84;21500;-83
2021/09/07 09:35:57;;;;;;;7.63;6.87;;;;;;;18.44;67.52;97374.21;1664612;84;21106;-83
2021/09/07 09:38:27;;;;;;;5.90;5.30;;;;;;;18.63;67.02;97373.36;1678118;84;21056;-83
2021/09/07 09:41:04;;;;;;;6.80;5.72;;;;;;;18.74;67.81;97377.17;1690865;84;21067;-83
2021/09/07 09:43:43;;;;;;;7.80;6.33;;;;;;;18.86;66.19;97371.53;1694350;84;21146;-83
2021/09/07 09:46:25;;;;;;;6.60;5.62;;;;;;;18.96;65.35;97375.85;1678750;84;21009;-83
2021/09/07 09:48:53;;;;;;;7.03;6.05;;;;;;;19.04;64.81;97376.94;1662921;84;20975;-83
2021/09/07 09:51:21;;;;;;;6.17;5.58;;;;;;;19.08;63.08;97372.86;1683711;84;21074;-83
2021/09/07 09:53:49;;;;;;;7.28;5.72;;;;;;;19.10;66.54;97366.05;1672939;84;21422;-83
2021/09/07 09:56:15;;;;;;;6.85;5.65;;;;;;;19.13;67.56;97370.38;1700354;84;20983;-83
2021/09/07 09:58:41;;;;;;;6.00;5.40;;;;;;;19.22;64.97;97373.59;1675797;84;21118;-83
2021/09/07 10:01:07;;;;;;;7.47;6.03;;;;;;;19.31;65.20;97368.86;1691158;84;21048;-83
2021/09/07 10:03:33;;;;;;;6.08;5.03;;;;;;;19.37;64.80;97372.78;1686633;84;21052;-83
2021/09/07 10:05:59;;;;;;;6.40;5.80;;;;;;;19.42;63.29;97364.23;1665791;84;20998;-83
2021/09/07 10:08:25;;;;;;;6.75;5.40;;;;;;;19.45;63.99;97361.97;1686401;84;21461;-83
2021/09/07 10:11:05;;;;;;;7.33;6.37;;;;;;;19.47;64.84;97365.20;1667714;84;21029;-83
2021/09/07 10:13:32;;;;;;;8.33;5.70;;;;;;;19.46;65.52;97364.90;1681870;84;21401;-83
2021/09/07 10:16:01;;;;;;;8.20;6.15;;;;;;;19.45;63.16;97366.44;1640688;85;21112;-83
2021/09/07 10:18:46;;;;;;;8.10;5.67;;;;;;;19.54;62.95;97370.47;1671415;84;21426;-83
2021/09/07 10:26:43;;;;;;;7.12;6.25;;;;;;;19.84;64.36;97365.33;1670536;84;21050;-83
2021/09/07 10:29:28;;;;;;;6.67;5.50;;;;;;;19.97;62.29;97371.81;1676495;84;21098;-84
2021/09/07 10:31:55;;;;;;;6.85;5.85;;;;;;;20.12;61.36;97367.52;1664942;84;22386;-83
2021/09/07 10:34:25;;;;;;;7.92;6.25;;;;;;;20.28;61.67;97368.78;1691147;84;21052;-83
2021/09/07 10:37:00;;;;;;;7.03;5.92;;;;;;;20.33;60.40;97371.05;1678949;84;21075;-84
2021/09/07 10:39:35;;;;;;;6.70;5.12;;;;;;;20.27;60.92;97367.98;1674563;84;21025;-83
2021/09/07 10:42:06;;;;;;;7.17;5.60;;;;;;;20.31;59.95;97369.66;1678898;84;21429;-84
2021/09/07 10:44:35;;;;;;;8.35;5.90;;;;;;;20.29;61.85;97374.35;1693950;84;21074;-83
2021/09/07 10:47:11;;;;;;;8.33;5.90;;;;;;;20.28;64.17;97366.95;1681132;84;21039;-83
2021/09/07 10:49:50;;;;;;;7.17;6.17;;;;;;;20.36;65.19;97369.31;1689105;84;21091;-84
2021/09/07 10:52:25;;;;;;;6.87;5.70;;;;;;;20.48;61.87;97373.88;1667758;84;21046;-83
2021/09/07 10:55:09;;;;;;;6.67;5.47;;;;;;;20.64;61.08;97364.84;1688187;84;21499;-83
2021/09/07 10:57:51;;;;;;;8.93;6.28;;;;;;;20.86;60.01;97365.20;1681305;84;21014;-84
2021/09/07 11:00:26;;;;;;;7.15;5.90;;;;;;;20.98;58.72;97359.95;1681238;84;21138;-83
2021/09/07 11:02:56;;;;;;;6.85;5.92;;;;;;;21.06;59.55;97362.30;1686302;84;21034;-84
2021/09/07 11:05:36;;;;;;;7.80;6.33;;;;;;;21.13;59.99;97357.71;1671012;84;21078;-83
2021/09/07 11:08:11;;;;;;;7.53;5.67;;;;;;;21.20;59.77;97357.64;1660395;85;21120;-84
2021/09/07 11:10:53;;;;;;;7.10;5.47;;;;;;;21.30;58.83;97353.94;1671399;84;21534;-84
2021/09/07 11:13:27;;;;;;;10.20;9.30;;;;;;;21.33;58.30;97358.00;1679586;84;21039;-84
2021/09/07 11:16:02;;;;;;;12.15;11.05;;;;;;;21.34;57.26;97352.48;1687267;84;21164;-84
2021/09/07 11:18:30;;;;;;;9.00;8.20;;;;;;;21.39;57.67;97349.15;1679881;84;21021;-83
2021/09/07 11:21:00;;;;;;;8.85;7.97;;;;;;;21.38;56.73;97347.02;1679960;84;21053;-84
2021/09/07 11:23:29;;;;;;;6.62;6.03;;;;;;;21.37;56.01;97349.37;1691291;84;21406;-84
2021/09/07 11:26:07;;;;;;;7.65;6.60;;;;;;;21.43;56.48;97351.11;1621232;85;21127;-83
2021/09/07 11:28:34;;;;;;;6.65;5.22;;;;;;;21.51;55.32;97343.38;1673938;84;21549;-84
2021/09/07 11:31:01;;;;;;;6.90;5.58;;;;;;;21.57;55.87;97349.06;1685493;84;21024;-84
2021/09/07 11:33:30;;;;;;;6.40;5.70;;;;;;;21.65;54.88;97344.78;1683781;84;21415;-84
2021/09/07 11:36:03;;;;;;;6.20;5.05;;;;;;;21.73;55.02;97339.14;1670927;84;21093;-83
2021/09/07 11:38:34;;;;;;;7.20;5.83;;;;;;;21.85;55.50;97346.57;1697709;84;20995;-84
2021/09/07 11:41:06;;;;;;;7.03;5.80;;;;;;;21.93;55.60;97355.99;1680591;84;21008;-83